Time;durP1;ratioP1;P1;durP2;ratioP2;P2;SDS_P1;SDS_P2;PMS_P1;PMS_P2;Temp;Humidity;BMP_temperature;BMP_pressure;BME280_temperature;BME280_humidity;BME280_pressure;Samples;Min_cycle;Max_cycle;Signal;HPM_P1;HPM_P2
2021/07/07 02:54:03;;;;;;;13.40;10.20;;;;;;;25.79;100.00;100885.50;4862862;29;20049;-77
2021/07/07 02:56:49;;;;;;;14.13;10.02;;;;;;;25.79;100.00;100893.53;4853134;29;20048;-77
2021/07/07 02:59:35;;;;;;;11.85;10.23;;;;;;;25.57;100.00;100904.25;4864379;29;20057;-77
2021/07/07 03:02:21;;;;;;;11.93;10.32;;;;;;;25.53;100.00;100902.75;4865364;29;20419;-77
2021/07/07 03:05:06;;;;;;;12.40;10.57;;;;;;;25.50;100.00;100907.47;4864301;29;20188;-77
2021/07/07 03:07:53;;;;;;;16.05;11.15;;;;;;;25.37;100.00;100915.63;4865416;29;20462;-77
2021/07/07 03:10:40;;;;;;;11.23;10.13;;;;;;;25.39;100.00;100913.66;4864822;29;20033;-77
2021/07/07 03:13:27;;;;;;;17.98;11.95;;;;;;;25.15;100.00;100912.78;4864883;29;20030;-77
2021/07/07 03:16:13;;;;;;;16.83;10.75;;;;;;;25.36;100.00;100916.56;4864662;29;20037;-76
2021/07/07 03:18:59;;;;;;;19.63;11.85;;;;;;;25.16;100.00;100914.50;4862892;29;20527;-77
2021/07/07 03:21:44;;;;;;;14.02;11.20;;;;;;;25.04;100.00;100922.59;4863167;29;20038;-77
2021/07/07 03:24:30;;;;;;;20.95;11.00;;;;;;;25.09;100.00;100920.44;4863927;29;20021;-77
2021/07/07 03:27:16;;;;;;;16.95;10.88;;;;;;;25.34;100.00;100925.72;4864337;29;20498;-77
2021/07/07 03:30:04;;;;;;;17.90;11.73;;;;;;;25.20;100.00;100933.91;4851375;29;20463;-77
2021/07/07 03:32:50;;;;;;;14.55;11.60;;;;;;;25.26;100.00;100933.44;4863881;29;20025;-77
2021/07/07 03:35:36;;;;;;;14.23;10.23;;;;;;;25.35;100.00;100936.31;4863845;29;20033;-77
2021/07/07 03:38:24;;;;;;;17.55;10.48;;;;;;;25.43;100.00;100927.72;4864338;29;20033;-77
2021/07/07 03:41:09;;;;;;;14.30;10.57;;;;;;;24.37;100.00;100939.13;4863753;29;20371;-77
2021/07/07 03:43:55;;;;;;;14.18;10.70;;;;;;;24.81;100.00;100937.69;4851284;29;20033;-77
2021/07/07 03:46:41;;;;;;;13.57;11.48;;;;;;;25.00;100.00;100934.53;4851506;29;20120;-77
2021/07/07 03:49:27;;;;;;;18.20;11.15;;;;;;;24.76;100.00;100942.53;4863706;29;20160;-77
2021/07/07 03:52:12;;;;;;;16.40;11.00;;;;;;;24.67;100.00;100947.69;4863404;29;20133;-77
2021/07/07 03:54:58;;;;;;;13.40;11.35;;;;;;;25.02;100.00;100944.16;4863739;29;20151;-78
2021/07/07 03:57:45;;;;;;;14.63;11.15;;;;;;;24.93;100.00;100947.53;4863667;29;20033;-77
2021/07/07 04:00:32;;;;;;;15.80;11.15;;;;;;;25.11;100.00;100946.16;4863484;29;20470;-77
2021/07/07 04:03:17;;;;;;;17.08;12.00;;;;;;;25.02;100.00;100948.66;4862300;29;20065;-77
2021/07/07 04:06:03;;;;;;;17.85;11.43;;;;;;;24.58;100.00;100959.88;4863234;29;20105;-77
2021/07/07 04:08:49;;;;;;;19.33;11.95;;;;;;;24.21;100.00;100963.47;4863021;29;20033;-77
2021/07/07 04:11:35;;;;;;;15.18;12.30;;;;;;;24.52;100.00;100975.56;4849593;29;20320;-77
2021/07/07 04:14:25;;;;;;;15.63;11.30;;;;;;;24.85;100.00;100967.81;4848877;29;20029;-77
2021/07/07 04:17:11;;;;;;;15.82;11.60;;;;;;;24.89;100.00;100969.28;4849900;29;20101;-77
2021/07/07 04:19:57;;;;;;;12.88;11.38;;;;;;;25.32;100.00;100981.31;4863272;29;20443;-77
2021/07/07 04:22:44;;;;;;;15.30;12.40;;;;;;;25.31;100.00;100983.13;4862088;29;20034;-76
2021/07/07 04:25:29;;;;;;;16.63;13.60;;;;;;;25.06;100.00;100988.56;4849353;29;20064;-77
2021/07/07 04:28:15;;;;;;;15.48;13.35;;;;;;;24.98;100.00;101004.34;4850069;29;20029;-78
2021/07/07 04:31:01;;;;;;;19.00;15.07;;;;;;;24.95;100.00;100998.34;4863763;29;20320;-77
2021/07/07 04:33:47;;;;;;;17.48;14.13;;;;;;;24.90;100.00;101006.72;4862654;29;20120;-77
2021/07/07 04:36:33;;;;;;;18.17;13.98;;;;;;;24.98;100.00;101006.16;4862906;29;20040;-78
2021/07/07 04:39:19;;;;;;;18.00;13.68;;;;;;;25.19;100.00;101004.63;4861952;29;20036;-78
2021/07/07 04:42:05;;;;;;;15.43;13.07;;;;;;;25.27;100.00;101005.75;4862065;29;20033;-77
2021/07/07 04:44:51;;;;;;;14.63;12.45;;;;;;;25.62;100.00;101008.53;4862371;29;20029;-77
2021/07/07 04:47:38;;;;;;;14.35;12.85;;;;;;;25.75;100.00;100998.56;4862174;29;20401;-78
2021/07/07 04:50:23;;;;;;;17.00;12.13;;;;;;;26.08;100.00;101010.31;4862488;29;20029;-77
2021/07/07 04:53:09;;;;;;;14.90;12.20;;;;;;;26.28;100.00;101006.97;4862617;29;20471;-78
2021/07/07 04:55:58;;;;;;;16.08;13.27;;;;;;;26.29;100.00;101005.13;4850596;29;20029;-77
2021/07/07 04:58:44;;;;;;;13.77;11.60;;;;;;;26.71;100.00;101009.84;4849748;29;20029;-78
2021/07/07 05:01:30;;;;;;;11.43;10.23;;;;;;;26.43;100.00;101002.22;4861297;29;20041;-78
2021/07/07 05:04:18;;;;;;;14.40;10.50;;;;;;;26.64;100.00;101016.72;4862494;29;20394;-78
2021/07/07 05:07:04;;;;;;;14.40;11.07;;;;;;;26.66;100.00;101017.44;4849740;29;20368;-76
2021/07/07 05:09:50;;;;;;;12.50;9.82;;;;;;;26.93;100.00;101015.25;4862702;29;20040;-77
2021/07/07 05:12:36;;;;;;;16.35;10.55;;;;;;;26.45;100.00;101016.41;4862048;29;20038;-78
2021/07/07 05:15:21;;;;;;;12.50;10.68;;;;;;;26.65;100.00;101016.56;4836100;29;20048;-78
2021/07/07 05:18:09;;;;;;;12.45;10.85;;;;;;;26.47;100.00;101015.31;4862150;29;20053;-78
2021/07/07 05:20:55;;;;;;;12.50;11.20;;;;;;;26.43;100.00;101016.53;4849872;29;20040;-77
2021/07/07 05:23:40;;;;;;;13.38;10.60;;;;;;;27.23;100.00;101029.78;4862611;29;20332;-77
2021/07/07 05:26:26;;;;;;;13.15;11.25;;;;;;;26.91;100.00;101027.94;4862473;29;20045;-78
2021/07/07 05:29:14;;;;;;;12.60;11.30;;;;;;;27.13;100.00;101023.38;4862301;29;20026;-77
2021/07/07 05:31:59;;;;;;;19.58;11.77;;;;;;;27.09;100.00;101030.00;4861788;29;20033;-77
2021/07/07 05:34:45;;;;;;;17.42;12.18;;;;;;;27.17;100.00;101021.31;4863993;29;20021;-78
2021/07/07 05:37:31;;;;;;;14.98;11.05;;;;;;;27.17;100.00;101032.91;4848526;29;20121;-76
2021/07/07 05:40:19;;;;;;;15.15;13.38;;;;;;;27.11;100.00;101036.13;4862192;29;20062;-77
2021/07/07 05:43:05;;;;;;;15.82;14.00;;;;;;;26.83;100.00;101039.31;4861690;29;20375;-77
2021/07/07 05:45:52;;;;;;;16.23;13.40;;;;;;;26.98;100.00;101040.78;4862420;29;20116;-77
2021/07/07 05:48:37;;;;;;;15.80;14.10;;;;;;;27.35;100.00;101044.94;4848613;29;20034;-78
2021/07/07 05:52:03;;;;;;;18.85;13.80;;;;;;;27.01;100.00;101050.44;4861999;29;20053;-78
2021/07/07 05:54:51;;;;;;;18.08;14.30;;;;;;;27.13;100.00;101054.84;4843322;29;20049;-77
2021/07/07 07:43:30;;;;;;;13.25;10.55;;;;;;;31.29;100.00;101098.22;5187623;23;20057;-77
2021/07/07 07:46:16;;;;;;;14.68;10.13;;;;;;;31.70;100.00;101096.84;4850792;29;20479;-77
2021/07/07 07:49:04;;;;;;;13.75;10.18;;;;;;;30.17;100.00;101096.41;4863068;29;20033;-77
2021/07/07 07:51:50;;;;;;;13.43;9.65;;;;;;;30.78;100.00;101097.81;4849760;29;20029;-78
2021/07/07 07:54:36;;;;;;;13.60;9.70;;;;;;;31.39;100.00;101102.56;4862804;29;20033;-76
2021/07/07 07:57:22;;;;;;;13.35;9.93;;;;;;;31.83;100.00;101110.91;4864075;29;20488;-77
2021/07/07 08:00:11;;;;;;;13.77;10.43;;;;;;;32.06;100.00;101104.88;4863348;29;20033;-77
2021/07/07 08:02:57;;;;;;;11.40;10.05;;;;;;;32.35;100.00;101110.09;4863007;29;20104;-78
2021/07/07 08:05:43;;;;;;;14.30;9.73;;;;;;;32.02;100.00;101110.78;4849822;29;20375;-78
2021/07/07 08:08:29;;;;;;;14.10;10.10;;;;;;;32.39;100.00;101111.50;4861479;29;20053;-77
2021/07/07 08:11:15;;;;;;;13.70;9.85;;;;;;;32.07;100.00;101103.03;4862200;29;20029;-77
2021/07/07 08:14:01;;;;;;;12.05;9.75;;;;;;;32.56;100.00;101105.19;4863220;29;20044;-76
2021/07/07 08:16:47;;;;;;;12.77;9.52;;;;;;;32.39;100.00;101106.06;4862563;29;20030;-76
2021/07/07 08:19:32;;;;;;;11.38;9.25;;;;;;;32.79;100.00;101109.09;4862954;29;20060;-76
2021/07/07 08:22:18;;;;;;;10.85;9.75;;;;;;;33.22;100.00;101112.59;4863056;29;20064;-77
2021/07/07 08:25:06;;;;;;;11.73;10.25;;;;;;;32.57;100.00;101109.59;4850006;29;20029;-76
2021/07/07 08:27:54;;;;;;;10.02;8.90;;;;;;;31.47;100.00;101104.53;4862701;29;20375;-76
2021/07/07 08:30:40;;;;;;;12.02;8.93;;;;;;;31.82;100.00;101098.38;4862058;29;20044;-76
2021/07/07 08:33:28;;;;;;;16.77;10.05;;;;;;;32.55;100.00;101109.78;4862871;29;20030;-77
2021/07/07 08:36:22;;;;;;;19.60;10.20;;;;;;;32.71;100.00;101103.59;4861496;29;20112;-77
2021/07/07 08:39:11;;;;;;;13.40;9.55;;;;;;;33.11;100.00;101104.72;4863275;29;20085;-78
2021/07/07 08:41:57;;;;;;;10.25;8.85;;;;;;;32.74;100.00;101108.72;4862439;29;20052;-79
2021/07/07 08:44:43;;;;;;;11.05;9.05;;;;;;;33.26;100.00;101115.84;4850383;29;20042;-78
2021/07/07 08:47:29;;;;;;;11.38;9.23;;;;;;;33.41;100.00;101111.50;4863302;29;20061;-77
2021/07/07 08:50:25;;;;;;;12.38;9.07;;;;;;;33.35;100.00;101110.28;4862495;29;20581;-77
2021/07/07 08:53:14;;;;;;;11.60;9.20;;;;;;;33.59;100.00;101110.41;4864174;29;20037;-77
2021/07/07 08:56:02;;;;;;;9.40;8.45;;;;;;;33.03;100.00;101112.00;4862911;29;20068;-76
2021/07/07 08:58:50;;;;;;;9.63;8.65;;;;;;;33.24;100.00;101113.28;4862041;29;20466;-77
2021/07/07 09:02:03;;;;;;;10.43;9.23;;;;;;;33.25;100.00;101111.41;4849346;29;20033;-77
2021/07/07 09:04:48;;;;;;;10.75;8.43;;;;;;;33.42;100.00;101122.22;4849321;29;20045;-76
2021/07/07 09:10:51;;;;;;;12.38;8.50;;;;;;;33.41;100.00;101120.53;4862551;29;20189;-76
2021/07/07 09:13:37;;;;;;;11.85;8.30;;;;;;;33.58;100.00;101118.72;4861336;29;20101;-76
2021/07/07 09:16:25;;;;;;;12.23;8.32;;;;;;;33.85;100.00;101122.06;4862151;29;20037;-76
2021/07/07 09:19:18;;;;;;;14.98;8.25;;;;;;;34.13;96.15;101117.19;4862307;29;20101;-76
2021/07/07 09:22:06;;;;;;;11.70;8.60;;;;;;;33.94;96.89;101121.06;4863419;29;20348;-76
2021/07/07 09:25:01;;;;;;;9.52;8.43;;;;;;;33.35;100.00;101125.78;4862033;29;20435;-76
2021/07/07 09:27:47;;;;;;;12.90;8.43;;;;;;;34.38;95.82;101118.94;4864616;29;20076;-76
2021/07/07 09:30:32;;;;;;;10.18;8.27;;;;;;;34.70;91.50;101125.22;4861971;29;20032;-76
2021/07/07 09:33:20;;;;;;;11.85;9.00;;;;;;;34.57;91.77;101119.47;4862293;29;20126;-76
2021/07/07 09:36:24;;;;;;;10.65;8.65;;;;;;;34.81;88.69;101116.75;4861358;29;20439;-77
2021/07/07 09:39:10;;;;;;;10.80;8.45;;;;;;;34.08;92.49;101125.00;4864114;29;20029;-78
2021/07/07 09:42:03;;;;;;;12.70;9.27;;;;;;;32.90;99.80;101119.72;4862320;29;20103;-79
2021/07/07 09:44:49;;;;;;;23.13;9.70;;;;;;;33.74;95.31;101118.75;4862764;29;20033;-79
2021/07/07 09:47:35;;;;;;;14.68;9.80;;;;;;;33.68;96.31;101131.19;4850325;29;20040;-77
2021/07/07 09:50:21;;;;;;;11.38;8.88;;;;;;;32.90;100.00;101128.69;4865608;29;20467;-77
2021/07/07 09:53:09;;;;;;;12.63;9.68;;;;;;;33.23;100.00;101133.31;4853613;29;20471;-77
2021/07/07 09:55:56;;;;;;;10.68;9.68;;;;;;;33.20;100.00;101127.34;4867214;29;20037;-77
2021/07/07 09:58:42;;;;;;;13.82;10.05;;;;;;;33.06;100.00;101127.97;4865408;29;20026;-79
2021/07/07 10:01:28;;;;;;;14.05;9.77;;;;;;;33.45;100.00;101132.78;4865098;29;20376;-78
2021/07/07 10:04:17;;;;;;;13.05;10.07;;;;;;;33.01;99.34;101125.72;4853456;29;20037;-78
2021/07/07 10:07:05;;;;;;;12.40;9.60;;;;;;;33.46;100.00;101123.59;4864491;29;20037;-78
2021/07/07 10:09:52;;;;;;;12.80;9.85;;;;;;;33.87;96.96;101119.19;4865687;29;20029;-78
2021/07/07 10:12:41;;;;;;;9.60;8.55;;;;;;;33.59;91.49;101115.00;4866426;29;20067;-78
2021/07/07 10:15:28;;;;;;;10.43;8.50;;;;;;;33.43;94.02;101110.34;4865979;29;20034;-76
2021/07/07 10:18:15;;;;;;;9.20;8.30;;;;;;;33.38;93.25;101115.41;4865451;29;20037;-76
2021/07/07 10:21:01;;;;;;;9.75;8.75;;;;;;;33.40;93.73;101127.00;4866173;29;20042;-76
2021/07/07 10:23:48;;;;;;;9.60;8.63;;;;;;;33.70;94.99;101112.81;4865720;29;20029;-76
2021/07/07 10:26:35;;;;;;;14.00;9.10;;;;;;;33.17;97.59;101116.81;4865645;29;20033;-76
2021/07/07 10:29:25;;;;;;;9.02;8.02;;;;;;;33.60;97.10;101116.69;4865702;29;20030;-76
2021/07/07 10:32:16;;;;;;;13.60;8.98;;;;;;;33.45;97.88;101105.59;4864369;29;20032;-78
2021/07/07 10:35:12;;;;;;;14.43;8.90;;;;;;;33.81;92.51;101111.66;4853313;29;20097;-78
2021/07/07 10:38:02;;;;;;;16.10;8.65;;;;;;;33.04;95.70;101110.97;4866635;29;20072;-78
2021/07/07 10:40:54;;;;;;;9.80;8.45;;;;;;;33.43;94.22;101101.34;4854253;29;20037;-79
2021/07/07 10:43:49;;;;;;;12.68;8.65;;;;;;;34.13;89.72;101111.75;4864628;29;20081;-77
2021/07/07 10:46:59;;;;;;;10.60;8.30;;;;;;;33.30;95.85;101109.09;4865895;29;20056;-76
2021/07/07 10:49:50;;;;;;;15.73;10.32;;;;;;;33.69;98.23;101102.97;4866617;29;20033;-76
2021/07/07 10:52:40;;;;;;;15.45;10.00;;;;;;;34.08;97.60;101097.81;4865529;29;20033;-76
2021/07/07 10:55:42;;;;;;;15.20;9.05;;;;;;;33.77;93.75;101100.28;4864728;29;20108;-76
2021/07/07 10:58:36;;;;;;;14.27;8.13;;;;;;;33.57;89.20;101109.72;4852037;29;20466;-76
2021/07/07 11:01:39;;;;;;;9.05;8.13;;;;;;;33.14;93.82;101103.56;4851511;29;20037;-76
2021/07/07 11:04:42;;;;;;;11.10;8.70;;;;;;;33.55;95.05;101097.31;4851272;29;20108;-76
2021/07/07 11:07:31;;;;;;;15.82;9.50;;;;;;;33.47;96.18;101094.56;4850904;29;20038;-76
2021/07/07 11:10:23;;;;;;;10.60;8.63;;;;;;;33.41;93.67;101100.66;4865380;29;20036;-76
2021/07/07 11:13:09;;;;;;;9.90;8.27;;;;;;;34.03;91.21;101083.88;4865416;29;20040;-77
2021/07/07 11:16:09;;;;;;;11.77;8.73;;;;;;;34.11;93.66;101092.03;4865755;29;20037;-78
2021/07/07 11:18:54;;;;;;;10.60;8.93;;;;;;;33.94;92.24;101093.00;4865915;29;20440;-76
2021/07/07 11:21:44;;;;;;;13.13;8.60;;;;;;;34.72;85.73;101095.09;4864887;29;20042;-77
2021/07/07 11:24:30;;;;;;;13.32;9.20;;;;;;;34.21;94.07;101099.00;4865759;29;20033;-76
2021/07/07 11:27:17;;;;;;;15.55;9.30;;;;;;;33.28;100.00;101101.09;4864703;29;20029;-76
2021/07/07 11:30:06;;;;;;;17.00;9.02;;;;;;;33.55;99.66;101098.16;4864564;29;20428;-76
2021/07/07 11:32:54;;;;;;;13.93;8.73;;;;;;;34.09;95.77;101086.75;4865167;29;20035;-77
2021/07/07 11:35:42;;;;;;;14.00;9.50;;;;;;;34.04;96.10;101093.72;4852256;29;20535;-77
2021/07/07 11:38:31;;;;;;;13.40;9.15;;;;;;;34.53;94.00;101093.59;4853200;29;20022;-77
2021/07/07 11:41:17;;;;;;;10.27;8.60;;;;;;;33.55;94.46;101091.88;4865739;29;20121;-76
2021/07/07 11:44:03;;;;;;;10.85;8.18;;;;;;;34.52;91.06;101091.03;4864215;29;20065;-76
2021/07/07 11:46:58;;;;;;;12.07;8.25;;;;;;;35.30;86.10;101095.69;4864395;29;20048;-76
2021/07/07 11:50:01;;;;;;;11.30;8.00;;;;;;;33.97;94.07;101082.66;4864065;29;20379;-76
2021/07/07 11:53:00;;;;;;;10.98;8.60;;;;;;;34.04;93.27;101093.72;4864110;29;20029;-76
2021/07/07 11:56:03;;;;;;;10.60;8.68;;;;;;;33.70;96.77;101096.50;4864037;29;20100;-75
2021/07/07 11:58:53;;;;;;;11.40;9.18;;;;;;;33.02;100.00;101108.41;4863510;29;20029;-78
2021/07/07 12:01:39;;;;;;;11.88;9.15;;;;;;;32.72;100.00;101092.59;4865293;29;20116;-76
2021/07/07 12:04:26;;;;;;;11.95;8.70;;;;;;;33.31;100.00;101105.34;4863830;29;20041;-77
2021/07/07 12:07:11;;;;;;;10.38;9.32;;;;;;;33.91;100.00;101087.94;4863320;29;20527;-76
2021/07/07 12:09:57;;;;;;;12.70;9.05;;;;;;;34.45;99.74;101101.78;4864028;29;20470;-76
2021/07/07 12:12:43;;;;;;;14.00;9.20;;;;;;;34.14;98.17;101100.69;4862930;29;20033;-76
2021/07/07 12:15:29;;;;;;;16.10;11.18;;;;;;;34.03;97.92;101105.63;4863388;29;20048;-76
2021/07/07 12:18:28;;;;;;;13.38;8.70;;;;;;;33.73;92.57;101101.63;4862351;29;20044;-76
2021/07/07 12:21:23;;;;;;;12.23;9.32;;;;;;;34.23;91.14;101107.00;4863223;29;20053;-76
2021/07/07 12:24:17;;;;;;;10.73;8.90;;;;;;;34.50;91.32;101103.97;4864668;29;20048;-76
2021/07/07 12:27:11;;;;;;;20.85;14.20;;;;;;;34.75;90.96;101092.00;4865538;29;20088;-78
2021/07/07 12:29:59;;;;;;;9.85;8.60;;;;;;;34.54;89.80;101080.81;4863437;29;20033;-78
2021/07/07 12:32:46;;;;;;;9.75;7.95;;;;;;;34.44;90.52;101091.88;4851174;29;20040;-78
2021/07/07 12:35:32;;;;;;;11.00;8.73;;;;;;;34.37;94.08;101088.16;4864094;29;20375;-78
2021/07/07 12:38:18;;;;;;;9.32;7.68;;;;;;;34.88;91.92;101104.09;4851684;29;20033;-76
2021/07/07 12:41:04;;;;;;;11.85;8.13;;;;;;;33.69;92.91;101100.25;4863339;29;20105;-77
2021/07/07 12:44:06;;;;;;;9.45;8.15;;;;;;;33.98;93.71;101088.94;4863070;29;20599;-78
2021/07/07 12:46:58;;;;;;;11.15;8.20;;;;;;;34.69;90.11;101096.31;4862345;29;20370;-78
2021/07/07 12:49:51;;;;;;;15.50;11.73;;;;;;;34.63;89.55;101101.56;4864358;29;20029;-77
2021/07/07 12:52:43;;;;;;;13.48;9.52;;;;;;;35.05;81.96;101113.09;4849664;29;20041;-78
2021/07/07 12:55:29;;;;;;;9.38;7.55;;;;;;;34.06;85.29;101102.56;4863694;29;20037;-76
2021/07/07 12:58:16;;;;;;;15.07;8.48;;;;;;;34.03;91.53;101100.19;4865399;29;20038;-77
2021/07/07 13:01:02;;;;;;;12.68;7.78;;;;;;;34.55;89.84;101099.72;4862716;29;20053;-77
2021/07/07 13:03:48;;;;;;;11.10;7.85;;;;;;;35.26;85.80;101099.75;4862462;29;20447;-78
2021/07/07 13:06:34;;;;;;;15.93;9.27;;;;;;;35.11;87.44;101102.34;4862804;29;20041;-78
2021/07/07 13:09:23;;;;;;;15.15;8.13;;;;;;;33.25;95.60;101109.56;4862765;29;20076;-76
2021/07/07 13:12:10;;;;;;;12.82;8.27;;;;;;;33.07;96.42;101105.22;4848972;29;20427;-77
2021/07/07 13:14:57;;;;;;;11.02;7.90;;;;;;;32.96;96.85;101095.50;4863671;29;20360;-76
2021/07/07 13:17:58;;;;;;;10.73;7.18;;;;;;;33.00;97.18;101104.16;4861948;29;20034;-77
2021/07/07 13:21:06;;;;;;;9.43;7.35;;;;;;;32.99;96.59;101094.31;4861986;29;20108;-79
2021/07/07 13:23:52;;;;;;;8.25;6.97;;;;;;;33.47;96.12;101105.44;4863417;29;20025;-78
2021/07/07 13:26:47;;;;;;;8.10;6.75;;;;;;;33.66;90.85;101106.00;4862876;29;20033;-78
2021/07/07 13:30:00;;;;;;;15.73;14.07;;;;;;;34.49;88.63;101102.28;4850460;29;20085;-76
2021/07/07 13:32:49;;;;;;;9.85;6.97;;;;;;;34.39;85.25;101105.16;4863069;29;20021;-78
2021/07/07 13:35:34;;;;;;;15.13;12.90;;;;;;;34.78;85.88;101103.44;4868668;29;20102;-78
2021/07/07 13:38:22;;;;;;;13.15;8.77;;;;;;;34.42;88.26;101103.97;4861395;29;20063;-78
2021/07/07 13:41:08;;;;;;;15.50;6.70;;;;;;;34.26;85.78;101103.94;4861588;29;20040;-77
2021/07/07 13:43:54;;;;;;;17.13;14.75;;;;;;;33.70;88.42;101109.22;4849343;29;20046;-78
2021/07/07 13:46:39;;;;;;;11.85;7.18;;;;;;;33.94;86.19;101112.03;4848108;29;20047;-78
2021/07/07 13:49:25;;;;;;;11.23;6.28;;;;;;;32.70;93.49;101105.44;4862346;29;20040;-78
2021/07/07 13:52:14;;;;;;;8.23;6.80;;;;;;;33.06;92.47;101115.22;4862381;29;20098;-77
2021/07/07 13:55:00;;;;;;;11.02;6.03;;;;;;;33.67;93.30;101126.72;4848671;29;20038;-77
2021/07/07 13:57:46;;;;;;;9.30;6.00;;;;;;;33.29;93.81;101131.81;4862731;29;20044;-78
2021/07/07 14:00:32;;;;;;;14.13;6.28;;;;;;;32.90;93.26;101119.72;4847869;29;20459;-78
2021/07/07 14:03:17;;;;;;;14.63;6.60;;;;;;;33.99;87.95;101120.59;4849561;29;20120;-78
2021/07/07 14:06:04;;;;;;;12.32;5.50;;;;;;;34.02;86.85;101128.38;4861999;29;20062;-77
2021/07/07 14:08:49;;;;;;;9.23;5.03;;;;;;;34.06;84.98;101127.03;4862578;29;20037;-77
2021/07/07 14:11:35;;;;;;;7.63;5.10;;;;;;;34.67;78.81;101121.97;4860836;29;20511;-78
2021/07/07 14:14:26;;;;;;;7.47;5.22;;;;;;;34.32;80.07;101119.63;4848206;29;20117;-78
2021/07/07 14:17:12;;;;;;;14.63;6.10;;;;;;;34.53;80.47;101111.78;4848630;29;20108;-79
2021/07/07 14:19:58;;;;;;;9.95;6.10;;;;;;;34.89;78.10;101108.56;4861881;29;20061;-78
2021/07/07 14:22:44;;;;;;;9.43;4.88;;;;;;;34.10;78.46;101109.34;4849158;29;20049;-78
2021/07/07 14:25:30;;;;;;;9.85;5.30;;;;;;;34.19;79.41;101108.38;4848125;29;20432;-76
2021/07/07 14:28:16;;;;;;;7.80;4.85;;;;;;;34.05;80.97;101104.44;4861383;29;20038;-77
2021/07/07 14:31:09;;;;;;;8.57;5.20;;;;;;;33.82;86.37;101113.38;4862589;29;20527;-79
2021/07/07 14:33:56;;;;;;;9.07;5.40;;;;;;;33.61;90.87;101112.94;4863853;29;20037;-78
2021/07/07 14:36:45;;;;;;;6.68;5.45;;;;;;;33.21;93.46;101107.31;4865083;29;20045;-78
2021/07/07 14:39:31;;;;;;;8.15;5.47;;;;;;;33.86;92.17;101098.44;4863939;29;20093;-78
2021/07/07 14:42:16;;;;;;;14.98;5.63;;;;;;;33.85;91.96;101097.59;4864288;29;20121;-78
2021/07/07 14:45:05;;;;;;;7.90;5.32;;;;;;;33.51;93.27;101093.22;4865248;29;20065;-78
2021/07/07 14:47:51;;;;;;;13.02;5.63;;;;;;;33.66;94.53;101094.28;4865993;29;20039;-78
2021/07/07 14:50:37;;;;;;;10.20;5.10;;;;;;;33.61;95.00;101091.22;4866167;29;20061;-78
2021/07/07 14:53:23;;;;;;;9.30;5.05;;;;;;;33.61;92.36;101102.06;4839146;29;20061;-77
2021/07/07 14:56:09;;;;;;;8.32;5.40;;;;;;;33.73;92.47;101096.19;4864877;29;20048;-78
2021/07/07 14:58:54;;;;;;;7.47;5.32;;;;;;;33.85;91.59;101100.31;4864330;29;20041;-78
2021/07/07 15:01:40;;;;;;;6.95;5.30;;;;;;;33.46;95.72;101098.28;4864231;29;20124;-77
2021/07/07 15:04:26;;;;;;;10.32;5.75;;;;;;;33.67;96.56;101104.97;4864220;29;20097;-78
2021/07/07 15:07:11;;;;;;;9.57;5.00;;;;;;;33.56;96.02;101108.03;4864744;29;20086;-78
2021/07/07 15:09:57;;;;;;;9.90;5.13;;;;;;;33.64;96.34;101104.47;4864508;29;20033;-78
2021/07/07 15:12:43;;;;;;;6.68;4.90;;;;;;;32.89;94.05;101104.41;4851805;29;20037;-77
2021/07/07 15:15:31;;;;;;;9.82;5.30;;;;;;;32.96;99.92;101110.91;4865286;29;20180;-77
2021/07/07 15:18:16;;;;;;;5.72;5.00;;;;;;;32.79;100.00;101111.78;4865046;29;20034;-77
2021/07/07 15:21:02;;;;;;;7.70;5.55;;;;;;;32.88;100.00;101114.44;4852427;29;20121;-78
2021/07/07 15:23:48;;;;;;;7.78;5.32;;;;;;;32.74;100.00;101106.00;4864530;29;20037;-79
2021/07/07 15:26:34;;;;;;;9.23;5.57;;;;;;;32.76;100.00;101112.97;4851582;29;20030;-77
2021/07/07 15:29:20;;;;;;;9.18;5.55;;;;;;;32.91;100.00;101108.66;4864264;29;20041;-78
2021/07/07 15:32:06;;;;;;;11.25;5.78;;;;;;;32.35;100.00;101108.25;4851761;29;20035;-77
2021/07/07 15:34:52;;;;;;;9.52;5.80;;;;;;;32.68;100.00;101107.50;4850602;29;20044;-78
2021/07/07 15:37:38;;;;;;;7.75;6.13;;;;;;;33.07;100.00;101116.09;4864099;29;20323;-79
2021/07/07 15:40:24;;;;;;;11.88;5.60;;;;;;;32.76;100.00;101114.81;4850192;29;20121;-78
2021/07/07 15:43:11;;;;;;;10.25;5.95;;;;;;;32.33;100.00;101114.81;4863280;29;20060;-78
2021/07/07 15:45:58;;;;;;;7.82;5.78;;;;;;;32.52;100.00;101118.22;4862454;29;20452;-78
2021/07/07 15:48:43;;;;;;;12.65;7.07;;;;;;;32.78;100.00;101124.50;4863717;29;20041;-77
2021/07/07 15:51:29;;;;;;;11.80;5.68;;;;;;;32.76;100.00;101128.41;4863475;29;20487;-78
2021/07/07 15:54:20;;;;;;;9.90;5.82;;;;;;;33.03;100.00;101128.28;4849993;29;20029;-77
2021/07/07 15:57:06;;;;;;;10.95;5.75;;;;;;;32.15;100.00;101120.25;4863846;29;20431;-79
2021/07/07 15:59:52;;;;;;;15.48;5.63;;;;;;;31.79;100.00;101125.78;4866437;29;20045;-77
2021/07/07 16:02:39;;;;;;;10.02;5.65;;;;;;;31.89;100.00;101134.72;4865733;29;20486;-79
2021/07/07 16:05:25;;;;;;;13.18;6.00;;;;;;;31.86;100.00;101127.72;4850319;29;20034;-79
2021/07/07 16:08:11;;;;;;;13.50;6.30;;;;;;;31.73;100.00;101124.47;4863520;29;20029;-78
2021/07/07 16:10:57;;;;;;;14.32;6.72;;;;;;;31.86;100.00;101116.88;4863535;29;20078;-78
2021/07/07 16:13:43;;;;;;;18.40;6.88;;;;;;;31.88;100.00;101120.28;4848831;29;20146;-78
2021/07/07 16:16:29;;;;;;;14.48;7.28;;;;;;;31.91;100.00;101114.56;4862372;29;20500;-77
2021/07/07 16:19:15;;;;;;;13.73;6.05;;;;;;;32.10;100.00;101117.13;4863434;29;20026;-78
2021/07/07 16:22:00;;;;;;;8.00;6.00;;;;;;;32.20;100.00;101126.03;4866746;29;20155;-78
2021/07/07 16:24:46;;;;;;;8.68;5.95;;;;;;;31.78;100.00;101126.78;4863235;29;20026;-78
2021/07/07 16:27:33;;;;;;;8.85;5.78;;;;;;;31.93;100.00;101119.84;4863511;29;20434;-78
2021/07/07 16:30:18;;;;;;;10.00;6.00;;;;;;;31.95;100.00;101128.66;4863164;29;20037;-79
2021/07/07 16:33:05;;;;;;;10.35;6.00;;;;;;;32.10;100.00;101127.97;4863120;29;20040;-78
2021/07/07 16:35:51;;;;;;;10.73;6.20;;;;;;;31.83;100.00;101133.47;4850421;29;20124;-78
2021/07/07 16:38:37;;;;;;;9.10;6.00;;;;;;;32.10;100.00;101119.81;4862592;29;20030;-78
2021/07/07 16:41:23;;;;;;;14.07;6.40;;;;;;;31.81;100.00;101126.50;4862206;29;20049;-78
2021/07/07 16:44:09;;;;;;;9.55;5.15;;;;;;;32.04;99.20;101133.16;4862287;29;20053;-78
2021/07/07 16:46:54;;;;;;;7.10;5.38;;;;;;;32.19;97.40;101134.31;4862842;29;20116;-78
2021/07/07 16:49:40;;;;;;;9.05;5.53;;;;;;;32.23;96.23;101136.59;4862480;29;20026;-78
2021/07/07 16:52:26;;;;;;;6.93;5.40;;;;;;;32.04;97.30;101141.28;4862105;29;20033;-78
2021/07/07 16:55:12;;;;;;;11.27;5.40;;;;;;;31.99;97.36;101141.75;4862485;29;20029;-78
2021/07/07 16:57:58;;;;;;;8.07;5.43;;;;;;;31.99;97.95;101149.03;4863540;29;20037;-77
2021/07/07 17:00:44;;;;;;;11.57;5.72;;;;;;;32.10;98.58;101154.25;4862679;29;20053;-78
2021/07/07 17:03:30;;;;;;;12.00;5.85;;;;;;;32.04;98.15;101152.13;4863120;29;20037;-77
2021/07/07 17:06:16;;;;;;;11.95;5.95;;;;;;;32.21;97.87;101168.41;4850123;29;20029;-78
2021/07/07 17:09:02;;;;;;;10.25;5.80;;;;;;;32.13;99.00;101165.63;4849744;29;20390;-78
2021/07/07 17:11:48;;;;;;;8.52;6.05;;;;;;;31.62;100.00;101172.63;4862862;29;20031;-78
2021/07/07 17:14:34;;;;;;;9.10;6.20;;;;;;;31.51;100.00;101168.25;4861615;29;20026;-77
2021/07/07 17:17:20;;;;;;;8.75;6.35;;;;;;;31.50;100.00;101169.25;4862373;29;20120;-78
2021/07/07 17:20:06;;;;;;;11.52;6.30;;;;;;;31.52;100.00;101171.81;4862041;29;20029;-78
2021/07/07 17:22:52;;;;;;;6.75;5.78;;;;;;;31.06;100.00;101165.38;4862903;29;20332;-78
2021/07/07 17:25:38;;;;;;;11.07;6.15;;;;;;;31.23;100.00;101167.34;4862064;29;20491;-78
2021/07/07 17:28:24;;;;;;;8.20;5.85;;;;;;;31.20;100.00;101169.47;4862717;29;20112;-77